Charleroi, Belgium

12:41 AM CET on February 07, 2016 (GMT +0100)
Garden | | Change Station
CLOSE
Current Station
Personal Weather Station
Location: Courcelles, RéGION WALLONNE
Elevation: 413 ft
Nearby Weather Stations

Elev 413 ft 50.45 °N, 4.37 °E | Updated 15 minutes ago

Mostly Cloudy
Mostly Cloudy
51.3 °F
Feels Like 51.3 °F
N
5.0
Wind Variable Wind from SSW

Today
High -- | Low -- °F
--% Chance of Precip.
Yesterday
High -- | Low -- °F
Precip. -- in
Pressure 29.50 in
Visibility 6.2 miles
Clouds Mostly Cloudy 20000 ft
Dew Point 41 °F
Humidity 74%
Rainfall Not available.
Snow Depth Not available.
8:08 AM 5:44 PM
Waning Crescent, 3% visible
METAR EBFS 062325Z 18015G26KT 9999 BKN200 10/03 Q0999 BLU
Pressure 29.50 in
Visibility 6.2 miles
Clouds Mostly Cloudy 20000 ft
Dew Point 41 °F
Humidity 74%
Rainfall Not available.
Snow Depth Not available.
8:08 AM 5:44 PM
Waning Crescent, 3% visible
METAR EBFS 062325Z 18015G26KT 9999 BKN200 10/03 Q0999 BLU

10-Day Weather Forecast

Almanac

Astronomy

Feb. 07, 2016 Rise Set
Actual Time
Civil Twilight
Nautical Twilight
Astronomical Twilight
Moon
Length of Visible Light
Length of Day
Tomorrow will be .
, % of the Moon is Illuminated

Today's Extremes

Country Highs Country Lows

Community

WunderPhotos

Upload Photos

1,891,098 photos uploaded!

WunderBlog® & News

Nearby

Air Quality

  Air Quality AQ Index Pollutant
Not available.

Snow Depth

Station Depth Elevation

Earthquake Activity

City Distance Mag. Time & Date
Minimum magnitude displayed is 2.5.

Coastal Water Temperatures

Place Temperature

Stations

Nearby Weather Stations

Station Location Temp. Windchill Dew Point Humidity Wind Precip. Elev Updated Type